UACC Airport Information

Runway Information
Runway 04 Length 11484 ft width 147 ft
Elevation 1165 ft Threshold 0 ft Heading 45
Runway 22 Length 11484 ft Width 147 ft
Elevation 1158 ft Threshold 0 ft Heading 225
Airport Frequencies
Type APP Name APP Frequency 124.6 MHZ
Type ATIS Name ATIS Frequency 128.3 MHZ
Type RDR Name RADAR Frequency 124.6 MHZ
Type TWR Name TWR Frequency 118.7 MHZ
Airport Navaids
Type NDB Name Astana Frequency 318 KHZ
Type VOR-DME Name Astana Frequency 114200 KHZ
Type NDB Name Astana Frequency 318 KHZ
Airport Weather Information & NOTAM
ADDS - METARS form results

(0036 UTC 16 September 2019)
Data provider http://aviationweather.gov/metar/data/
 
METAR text: UACC 160030Z 08001MPS CAVOK 06/04 Q1017 R04/0///70 NOSIG RMK QFE731/0975
Conditions at: UACC (ASTANA KAZAKHSTA, KZ) observed 0030 UTC 16 September 2019
Temperature: 6.0°C (43°F)
Dewpoint: 4.0°C (39°F) [RH = 87%]
Pressure (altimeter): 30.03 inches Hg (1017.0 mb)
Winds: from the E (80 degrees) at 2 MPH (2 knots; 1.0 m/s)
Visibility: 6 or more miles (10+ km)
Ceiling: ceiling and visibility are OK
Clouds: unknown
Weather: no significant weather observed at this time

METAR text: UACC 160000Z 13002MPS 110V190 CAVOK 05/04 Q1017 R04/0///70 NOSIG RMK QFE731/0975
Conditions at: UACC (ASTANA KAZAKHSTA, KZ) observed 0000 UTC 16 September 2019
Temperature: 5.0°C (41°F)
Dewpoint: 4.0°C (39°F) [RH = 93%]
Pressure (altimeter): 30.03 inches Hg (1017.0 mb)
Winds: from the SE (130 degrees) at 5 MPH (4 knots; 2.1 m/s)
Visibility: 6 or more miles (10+ km)
Ceiling: ceiling and visibility are OK
Clouds: unknown
Weather: no significant weather observed at this time

Forecast for: UACC (ASTANA KAZAKHSTA, KZ)
Text: TAF UACC 152300Z 1600/1624 15004MPS 9999 SCT040 BKN100 TX21/1610Z TN04/1623Z
Forecast period: 0000 to 0600 UTC 16 September 2019
Forecast type: FROM: standard forecast or significant change
Winds: from the SSE (150 degrees) at 9 MPH (8 knots; 4.1 m/s)
Visibility: 6 or more miles 10+ km)
Ceiling: 10000 feet AGL
Clouds: scattered clouds at 4000 feet AGL
broken clouds at 10000 feet AGL
Weather: no significant weather forecast for this period
Text: TEMPO 1600/1603 0300 FG VV002
Forecast period: 0000 to 0300 UTC 16 September 2019
Forecast type: TEMPORARY: The following changes expected for less than half the time period
Visibility: 0.19 miles (0.31 km)
Ceiling: indefinite ceiling with vertical visibility of 200 feet AGL
Clouds: obscured sky
Weather: FG  (fog)
Text: BECMG 1606/1608 18006MPS
Forecast period: 0600 UTC 16 September 2019 to 0000 UTC 17 September 2019
Forecast type: BECOMING: Conditions expected to become as follows by 0800 UTC 16 September 2019
Winds: from the S (180 degrees) at 14 MPH (12 knots; 6.2 m/s)
Visibility: 6 or more miles 10+ km)
Ceiling: 10000 feet AGL
Clouds: scattered clouds at 4000 feet AGL
broken clouds at 10000 feet AGL
Weather: no significant weather forecast for this period